createdAt,value
2022-10-05T00:00:54.592Z,84.58
2022-10-05T00:03:22.657Z,84.35
2022-10-05T00:05:50.024Z,84.31
2022-10-05T00:08:22.534Z,84.73
2022-10-05T00:10:50.640Z,84.47
2022-10-05T00:13:21.759Z,84.92
2022-10-05T00:15:50.030Z,84.27
2022-10-05T00:18:19.943Z,84.76
2022-10-05T00:20:48.866Z,84.64
2022-10-05T00:23:29.370Z,84.22
2022-10-05T00:26:12.304Z,84.25
2022-10-05T00:28:41.391Z,84.88
2022-10-05T00:31:25.751Z,83.90
2022-10-05T00:33:56.583Z,84.58
2022-10-05T00:36:26.019Z,84.43
2022-10-05T00:38:53.307Z,84.52
2022-10-05T00:41:55.239Z,83.25
2022-10-05T00:44:50.737Z,84.47
2022-10-05T00:47:32.591Z,85.04
2022-10-05T00:50:42.604Z,83.33
2022-10-05T00:53:45.665Z,84.56
2022-10-05T00:56:18.616Z,84.11
2022-10-05T00:59:25.685Z,83.79
2022-10-05T01:02:31.874Z,83.32
2022-10-05T01:05:54.920Z,82.84
2022-10-05T01:09:27.931Z,82.64
2022-10-05T01:12:37.245Z,82.07
2022-10-05T01:15:39.573Z,82.40
2022-10-05T01:18:25.908Z,83.52
2022-10-05T01:21:13.638Z,82.97
2022-10-05T01:24:05.386Z,84.85
2022-10-05T01:27:09.515Z,84.55
2022-10-05T01:30:12.247Z,84.18
2022-10-05T01:32:58.563Z,84.40
2022-10-05T01:35:38.237Z,84.13
2022-10-05T01:38:42.563Z,85.44
2022-10-05T01:41:55.052Z,84.60
2022-10-05T01:44:50.746Z,84.15
2022-10-05T01:47:37.432Z,85.35
2022-10-05T01:50:26.145Z,84.80
2022-10-05T01:53:37.803Z,84.36
2022-10-05T01:56:43.346Z,83.81
2022-10-05T01:59:46.812Z,85.90
2022-10-05T02:02:18.802Z,85.50
2022-10-05T02:05:02.932Z,85.31
2022-10-05T02:07:57.460Z,84.85
2022-10-05T02:10:44.575Z,86.16
2022-10-05T02:13:53.075Z,84.31
2022-10-05T02:16:44.113Z,84.60
2022-10-05T02:19:42.608Z,85.98
2022-10-05T02:22:27.585Z,86.23
2022-10-05T02:25:03.110Z,85.48
2022-10-05T02:27:36.744Z,84.78
2022-10-05T02:30:11.581Z,84.59
2022-10-05T02:33:33.729Z,83.68
2022-10-05T02:36:16.011Z,83.76
2022-10-05T02:39:26.485Z,83.29
2022-10-05T02:42:20.084Z,83.92
2022-10-05T02:45:26.236Z,85.71
2022-10-05T02:48:19.396Z,86.16
2022-10-05T02:51:28.811Z,87.42
2022-10-05T02:54:27.849Z,88.68
2022-10-05T02:57:23.944Z,88.82
2022-10-05T03:00:04.491Z,87.93
2022-10-05T03:02:52.965Z,88.25
2022-10-05T03:05:35.277Z,88.80
2022-10-05T03:08:17.102Z,88.62
2022-10-05T03:11:44.303Z,88.85
2022-10-05T03:14:43.238Z,88.01
2022-10-05T03:17:22.395Z,87.95
2022-10-05T03:20:19.733Z,88.57
2022-10-05T03:23:00.487Z,87.85
2022-10-05T03:25:48.285Z,88.11
2022-10-05T03:28:40.218Z,88.67
2022-10-05T03:31:25.199Z,89.21
2022-10-05T03:34:16.121Z,89.01
2022-10-05T03:36:56.667Z,89.14
2022-10-05T03:40:02.925Z,89.79
2022-10-05T03:43:03.654Z,89.85
2022-10-05T03:45:48.126Z,89.72
2022-10-05T03:48:30.564Z,89.68
2022-10-05T03:51:24.979Z,90.78
2022-10-05T03:54:05.606Z,90.49
2022-10-05T03:56:41.399Z,89.92
2022-10-05T03:59:16.897Z,89.98
2022-10-05T04:01:55.715Z,90.03
2022-10-05T04:04:34.758Z,90.66
2022-10-05T04:07:02.217Z,89.79
2022-10-05T04:09:38.409Z,89.09
2022-10-05T04:12:30.326Z,89.67
2022-10-05T04:15:06.841Z,89.83
2022-10-05T04:17:36.428Z,90.52
2022-10-05T04:20:38.259Z,89.77
2022-10-05T04:23:58.750Z,89.63
2022-10-05T04:26:43.591Z,88.97
2022-10-05T04:29:37.886Z,89.75
2022-10-05T04:32:37.821Z,90.38
2022-10-05T04:35:38.063Z,89.26
2022-10-05T04:38:26.734Z,90.57
2022-10-05T04:41:14.710Z,90.65
2022-10-05T04:44:13.785Z,91.10
2022-10-05T04:47:17.787Z,91.19
2022-10-05T04:49:47.547Z,90.47
2022-10-05T04:53:03.834Z,91.17
2022-10-05T04:55:55.607Z,91.40
2022-10-05T04:59:02.150Z,91.19
2022-10-05T05:01:54.857Z,92.01
2022-10-05T05:04:35.834Z,91.40
2022-10-05T05:07:21.459Z,92.07
2022-10-05T05:10:07.558Z,91.47
2022-10-05T05:13:12.722Z,91.32
2022-10-05T05:16:08.103Z,91.27
2022-10-05T05:19:01.939Z,92.04
2022-10-05T05:21:35.920Z,92.49
2022-10-05T05:24:33.807Z,91.53
2022-10-05T05:27:34.777Z,92.52
2022-10-05T05:30:24.666Z,92.38
2022-10-05T05:33:18.848Z,92.19
2022-10-05T05:36:23.356Z,91.79
2022-10-05T05:39:23.191Z,92.30
2022-10-05T05:42:25.040Z,92.80
2022-10-05T05:44:54.797Z,93.00
2022-10-05T05:47:38.358Z,92.63
2022-10-05T05:50:30.317Z,93.16
2022-10-05T05:53:24.995Z,92.09
2022-10-05T05:56:14.154Z,92.90
2022-10-05T05:59:16.965Z,92.77
2022-10-05T06:01:52.679Z,92.98
2022-10-05T06:04:28.635Z,92.88
2022-10-05T06:06:58.082Z,92.84
2022-10-05T06:09:43.241Z,93.04
2022-10-05T06:12:50.225Z,92.89
2022-10-05T06:15:43.750Z,92.87
2022-10-05T06:18:17.074Z,93.46
2022-10-05T06:21:19.685Z,92.91
2022-10-05T06:24:00.751Z,93.14
2022-10-05T06:26:52.221Z,93.03
2022-10-05T06:29:24.985Z,92.76
2022-10-05T06:32:27.531Z,93.08
2022-10-05T06:35:17.863Z,92.98
2022-10-05T06:38:49.994Z,93.34
2022-10-05T06:41:53.909Z,92.98
2022-10-05T06:45:03.953Z,93.40
2022-10-05T06:48:02.804Z,93.48
2022-10-05T06:51:50.516Z,93.46
2022-10-05T06:55:01.105Z,93.25
2022-10-05T06:57:49.130Z,93.52
2022-10-05T07:00:24.914Z,93.26
2022-10-05T07:03:47.294Z,93.11
2022-10-05T07:06:30.445Z,93.60
2022-10-05T07:09:16.428Z,92.99
2022-10-05T07:12:11.175Z,93.21
2022-10-05T07:14:58.353Z,92.87
2022-10-05T07:18:10.335Z,93.38
2022-10-05T07:21:18.912Z,93.63
2022-10-05T07:24:33.069Z,93.06
2022-10-05T07:27:23.745Z,93.12
2022-10-05T07:30:14.801Z,92.98
2022-10-05T07:33:13.241Z,93.35
2022-10-05T07:37:15.344Z,93.16
2022-10-05T07:40:03.995Z,92.95
2022-10-05T07:42:59.842Z,93.02
2022-10-05T07:45:52.989Z,92.68
2022-10-05T07:48:35.728Z,93.21
2022-10-05T07:51:34.177Z,92.99
2022-10-05T07:54:24.306Z,92.94
2022-10-05T07:57:29.465Z,92.63
2022-10-05T08:00:13.635Z,93.51
2022-10-05T08:02:55.408Z,93.40
2022-10-05T08:05:30.722Z,93.34
2022-10-05T08:08:31.970Z,93.14
2022-10-05T08:11:12.291Z,93.25
2022-10-05T08:14:06.158Z,92.96
2022-10-05T08:16:38.403Z,92.82
2022-10-05T08:19:37.131Z,92.44
2022-10-05T08:22:13.110Z,92.35
2022-10-05T08:25:04.460Z,92.23
2022-10-05T08:27:56.901Z,92.33
2022-10-05T08:30:24.678Z,91.85
2022-10-05T08:33:13.835Z,91.74
2022-10-05T08:35:51.474Z,91.60
2022-10-05T08:38:28.701Z,91.61
2022-10-05T08:41:52.709Z,91.50
2022-10-05T08:45:06.048Z,91.38
2022-10-05T08:48:09.930Z,91.66
2022-10-05T08:51:04.758Z,91.37
2022-10-05T08:54:11.154Z,91.39
2022-10-05T08:56:49.624Z,91.82
2022-10-05T08:59:34.955Z,91.59
2022-10-05T09:02:37.317Z,91.54
2022-10-05T09:05:37.933Z,91.41
2022-10-05T09:08:35.669Z,90.88
2022-10-05T09:11:03.955Z,91.58
2022-10-05T09:13:58.023Z,90.53
2022-10-05T09:16:44.193Z,90.85
2022-10-05T09:19:51.404Z,90.92
2022-10-05T09:22:39.026Z,90.79
2022-10-05T09:25:28.670Z,91.18
2022-10-05T09:28:03.504Z,90.62
2022-10-05T09:31:03.177Z,90.68
2022-10-05T09:34:06.444Z,90.86
2022-10-05T09:37:21.318Z,90.46
2022-10-05T09:40:20.338Z,90.09
2022-10-05T09:43:10.609Z,88.98
2022-10-05T09:46:03.976Z,89.26
2022-10-05T09:49:28.542Z,89.48
2022-10-05T09:52:15.147Z,90.14
2022-10-05T09:55:27.597Z,89.06
2022-10-05T09:58:28.337Z,90.32
2022-10-05T10:01:34.492Z,90.63
2022-10-05T10:04:32.515Z,89.71
2022-10-05T10:07:17.476Z,90.48
2022-10-05T10:10:29.260Z,89.09
2022-10-05T10:13:21.085Z,88.04
2022-10-05T10:16:31.808Z,87.73
2022-10-05T10:19:29.026Z,89.52
2022-10-05T10:22:52.090Z,89.24
2022-10-05T10:25:27.919Z,88.74
2022-10-05T10:28:25.640Z,87.79
2022-10-05T10:31:26.509Z,88.13
2022-10-05T10:34:28.692Z,89.36
2022-10-05T10:37:33.529Z,89.59
2022-10-05T10:40:30.670Z,89.59
2022-10-05T10:43:18.892Z,90.73
2022-10-05T10:46:30.878Z,90.91
2022-10-05T10:49:18.873Z,89.20
2022-10-05T10:52:24.637Z,90.30
2022-10-05T10:55:44.383Z,88.08
2022-10-05T10:59:01.949Z,89.73
2022-10-05T11:01:50.059Z,90.04
2022-10-05T11:04:38.087Z,86.59
2022-10-05T11:07:32.644Z,87.80
2022-10-05T11:10:29.150Z,86.13
2022-10-05T11:13:21.286Z,87.24
2022-10-05T11:16:15.942Z,88.02
2022-10-05T11:19:24.897Z,90.48
2022-10-05T11:22:41.470Z,86.25
2022-10-05T11:25:45.811Z,86.74
2022-10-05T11:28:59.009Z,84.26
2022-10-05T11:32:19.991Z,83.90
2022-10-05T11:35:07.551Z,85.70
2022-10-05T11:38:02.062Z,87.01
2022-10-05T11:41:06.297Z,84.72
2022-10-05T11:44:12.728Z,84.61
2022-10-05T11:46:55.404Z,84.92
2022-10-05T11:50:13.555Z,82.18
2022-10-05T11:53:13.779Z,86.74
2022-10-05T11:56:27.214Z,82.63
2022-10-05T11:59:09.138Z,83.83
2022-10-05T12:02:15.799Z,86.93
2022-10-05T12:05:21.459Z,84.60
2022-10-05T12:08:20.318Z,82.17
2022-10-05T12:11:30.648Z,79.83
2022-10-05T12:14:12.293Z,82.91
2022-10-05T12:17:05.733Z,79.42
2022-10-05T12:19:42.017Z,83.85
2022-10-05T12:22:37.295Z,78.99
2022-10-05T12:25:46.081Z,80.67
2022-10-05T12:28:23.374Z,83.06
2022-10-05T12:31:17.947Z,79.94
2022-10-05T12:33:58.339Z,79.69
2022-10-05T12:37:14.957Z,79.87
2022-10-05T12:40:30.526Z,79.80
2022-10-05T12:43:33.800Z,77.21
2022-10-05T12:46:32.469Z,80.71
2022-10-05T12:49:30.442Z,76.03
2022-10-05T12:52:28.195Z,77.95
2022-10-05T12:55:13.778Z,82.01
2022-10-05T12:57:58.192Z,81.99
2022-10-05T13:00:25.700Z,82.40
2022-10-05T13:03:32.004Z,79.62
2022-10-05T13:06:24.310Z,78.71
2022-10-05T13:09:12.887Z,79.42
2022-10-05T13:11:52.399Z,80.67
2022-10-05T13:14:43.339Z,79.55
2022-10-05T13:17:54.174Z,81.65
2022-10-05T13:20:40.398Z,80.09
2022-10-05T13:23:31.672Z,80.32
2022-10-05T13:26:07.785Z,81.82
2022-10-05T13:28:49.245Z,79.54
2022-10-05T13:31:40.856Z,81.68
2022-10-05T13:34:31.636Z,78.66
2022-10-05T13:37:27.881Z,75.66
2022-10-05T13:40:10.187Z,76.46
2022-10-05T13:43:20.199Z,76.42
2022-10-05T13:46:02.851Z,76.30
2022-10-05T13:48:47.712Z,79.05
2022-10-05T13:51:17.740Z,79.71
2022-10-05T13:54:30.377Z,76.73
2022-10-05T13:57:26.243Z,75.51
2022-10-05T14:00:02.664Z,78.22
2022-10-05T14:02:43.332Z,78.43
2022-10-05T14:05:29.051Z,79.03
2022-10-05T14:08:04.309Z,78.63
2022-10-05T14:10:43.936Z,75.98
2022-10-05T14:13:46.312Z,78.95
2022-10-05T14:16:13.300Z,76.99
2022-10-05T14:19:18.976Z,77.78
2022-10-05T14:22:01.675Z,77.50
2022-10-05T14:24:49.179Z,77.04
2022-10-05T14:27:30.922Z,77.15
2022-10-05T14:30:12.793Z,77.81
2022-10-05T14:33:03.779Z,80.10
2022-10-05T14:35:51.835Z,79.56
2022-10-05T14:38:21.869Z,79.26
2022-10-05T14:41:27.574Z,76.82
2022-10-05T14:44:04.795Z,79.35
2022-10-05T14:46:34.761Z,80.41
2022-10-05T14:49:37.255Z,73.40
2022-10-05T14:53:18.011Z,73.72
2022-10-05T14:56:17.201Z,74.56
2022-10-05T14:59:15.274Z,78.82
2022-10-05T15:01:54.823Z,79.81
2022-10-05T15:04:52.064Z,80.68
2022-10-05T15:07:38.851Z,80.06
2022-10-05T15:10:32.775Z,77.04
2022-10-05T15:13:15.993Z,73.43
2022-10-05T15:15:54.902Z,78.42
2022-10-05T15:18:51.354Z,72.30
2022-10-05T15:22:07.214Z,74.69
2022-10-05T15:24:50.434Z,77.27
2022-10-05T15:28:01.013Z,76.21
2022-10-05T15:30:28.203Z,76.79
2022-10-05T15:33:20.412Z,75.39
2022-10-05T15:36:22.792Z,76.68
2022-10-05T15:39:10.849Z,77.12
2022-10-05T15:42:02.023Z,77.46
2022-10-05T15:45:02.245Z,75.17
2022-10-05T15:47:59.935Z,78.08
2022-10-05T15:50:35.689Z,76.71
2022-10-05T15:53:23.487Z,76.26
2022-10-05T15:56:03.672Z,75.77
2022-10-05T15:58:42.279Z,75.67
2022-10-05T16:01:31.092Z,77.58
2022-10-05T16:04:39.034Z,78.37
2022-10-05T16:07:38.592Z,76.22
2022-10-05T16:10:23.339Z,78.80
2022-10-05T16:13:20.811Z,79.23
2022-10-05T16:16:21.039Z,77.73
2022-10-05T16:19:11.009Z,79.01
2022-10-05T16:22:18.850Z,80.09
2022-10-05T16:25:09.218Z,75.15
2022-10-05T16:28:14.420Z,78.50
2022-10-05T16:31:21.960Z,77.65
2022-10-05T16:34:01.196Z,75.65
2022-10-05T16:36:52.417Z,75.38
2022-10-05T16:39:48.684Z,75.65
2022-10-05T16:42:34.738Z,75.05
2022-10-05T16:45:57.452Z,73.14
2022-10-05T16:48:34.174Z,73.25
2022-10-05T16:51:41.899Z,71.65
2022-10-05T16:54:23.490Z,72.22
2022-10-05T16:56:59.313Z,71.98
2022-10-05T16:59:45.478Z,72.39
2022-10-05T17:02:56.704Z,71.37
2022-10-05T17:06:24.821Z,71.97
2022-10-05T17:09:38.220Z,71.43
2022-10-05T17:12:57.904Z,70.62
2022-10-05T17:15:55.710Z,71.90
2022-10-05T17:19:06.274Z,73.14
2022-10-05T17:21:55.133Z,72.65
2022-10-05T17:25:04.743Z,71.36
2022-10-05T17:27:51.109Z,72.51
2022-10-05T17:30:27.352Z,72.08
2022-10-05T17:33:13.926Z,71.40
2022-10-05T17:36:00.814Z,72.56
2022-10-05T17:38:50.644Z,71.89
2022-10-05T17:41:22.850Z,73.05
2022-10-05T17:44:20.841Z,73.31
2022-10-05T17:47:02.868Z,73.36
2022-10-05T17:50:16.230Z,73.99
2022-10-05T17:53:03.356Z,73.95
2022-10-05T17:55:33.964Z,74.43
2022-10-05T17:58:23.990Z,74.28
2022-10-05T18:00:57.217Z,74.62
2022-10-05T18:03:48.025Z,74.57
2022-10-05T18:06:37.287Z,74.85
2022-10-05T18:09:17.274Z,74.94
2022-10-05T18:11:49.194Z,75.13
2022-10-05T18:14:24.766Z,75.19
2022-10-05T18:17:12.097Z,75.09
2022-10-05T18:19:39.529Z,75.38
2022-10-05T18:22:15.553Z,75.24
2022-10-05T18:25:05.874Z,75.08
2022-10-05T18:28:27.091Z,74.87
2022-10-05T18:31:20.996Z,75.31
2022-10-05T18:34:03.361Z,75.48
2022-10-05T18:36:38.075Z,75.30
2022-10-05T18:39:35.392Z,75.14
2022-10-05T18:42:24.526Z,75.11
2022-10-05T18:45:20.407Z,75.36
2022-10-05T18:47:52.643Z,75.48
2022-10-05T18:50:43.916Z,75.26
2022-10-05T18:53:13.461Z,75.91
2022-10-05T18:56:24.757Z,75.33
2022-10-05T18:59:20.611Z,75.58
2022-10-05T19:02:19.883Z,75.23
2022-10-05T19:05:48.776Z,75.73
2022-10-05T19:09:03.382Z,74.91
2022-10-05T19:11:51.133Z,75.14
2022-10-05T19:14:37.321Z,73.83
2022-10-05T19:17:10.151Z,75.15
2022-10-05T19:20:08.785Z,75.34
2022-10-05T19:23:09.327Z,75.37
2022-10-05T19:25:52.989Z,75.60
2022-10-05T19:28:58.475Z,75.20
2022-10-05T19:31:50.123Z,75.39
2022-10-05T19:34:49.684Z,75.10
2022-10-05T19:37:25.669Z,75.83
2022-10-05T19:40:07.248Z,75.92
2022-10-05T19:43:23.808Z,75.31
2022-10-05T19:46:06.053Z,75.31
2022-10-05T19:48:44.487Z,75.77
2022-10-05T19:51:29.226Z,75.62
2022-10-05T19:54:25.753Z,75.67
2022-10-05T19:56:55.645Z,75.73
2022-10-05T19:59:27.875Z,75.91
2022-10-05T20:01:57.883Z,75.62
2022-10-05T20:04:37.158Z,75.44
2022-10-05T20:07:04.895Z,75.73
2022-10-05T20:09:59.394Z,75.51
2022-10-05T20:12:59.480Z,75.31
2022-10-05T20:15:51.899Z,75.92
2022-10-05T20:18:56.906Z,75.79
2022-10-05T20:21:50.707Z,75.60
2022-10-05T20:24:23.529Z,75.90
2022-10-05T20:27:06.368Z,75.90
2022-10-05T20:29:35.842Z,75.97
2022-10-05T20:32:17.924Z,75.58
2022-10-05T20:34:47.705Z,76.07
2022-10-05T20:37:18.131Z,75.86
2022-10-05T20:39:45.480Z,76.06
2022-10-05T20:42:12.471Z,75.68
2022-10-05T20:44:39.921Z,76.13
2022-10-05T20:47:09.550Z,75.93
2022-10-05T20:49:39.025Z,75.90
2022-10-05T20:52:10.082Z,76.14
2022-10-05T20:54:39.133Z,75.68
2022-10-05T20:57:06.891Z,75.43
2022-10-05T20:59:35.550Z,75.42
2022-10-05T21:02:03.846Z,75.80
2022-10-05T21:04:40.014Z,75.40
2022-10-05T21:07:08.135Z,75.39
2022-10-05T21:09:37.887Z,75.45
2022-10-05T21:12:04.848Z,75.30
2022-10-05T21:14:34.144Z,74.75
2022-10-05T21:17:01.899Z,74.93
2022-10-05T21:19:29.891Z,75.12
2022-10-05T21:22:02.386Z,74.93
2022-10-05T21:24:29.339Z,74.30
2022-10-05T21:26:57.440Z,74.42
2022-10-05T21:29:24.491Z,74.13
2022-10-05T21:31:51.682Z,73.94
2022-10-05T21:34:18.748Z,73.83
2022-10-05T21:36:45.961Z,73.89
2022-10-05T21:39:12.976Z,74.26
2022-10-05T21:41:39.961Z,74.09
2022-10-05T21:44:06.932Z,73.86
2022-10-05T21:46:36.664Z,73.88
2022-10-05T21:49:05.164Z,73.96
2022-10-05T21:51:33.602Z,73.95
2022-10-05T21:54:06.558Z,73.88
2022-10-05T21:56:38.598Z,73.86
2022-10-05T21:59:09.435Z,74.01
2022-10-05T22:01:36.519Z,73.87
2022-10-05T22:04:05.092Z,74.09
2022-10-05T22:06:33.638Z,74.68
2022-10-05T22:09:00.894Z,74.56
2022-10-05T22:11:28.956Z,74.33
2022-10-05T22:14:02.320Z,74.53
2022-10-05T22:16:33.366Z,74.62
2022-10-05T22:19:06.499Z,74.89
2022-10-05T22:21:38.119Z,74.72
2022-10-05T22:24:05.497Z,74.75
2022-10-05T22:26:34.703Z,74.96
2022-10-05T22:29:02.469Z,75.01
2022-10-05T22:31:29.565Z,74.95
2022-10-05T22:33:56.701Z,74.85
2022-10-05T22:36:23.737Z,74.97
2022-10-05T22:38:50.773Z,74.96
2022-10-05T22:41:18.396Z,75.22
2022-10-05T22:43:49.978Z,75.04
2022-10-05T22:46:17.570Z,74.74
2022-10-05T22:48:44.617Z,75.16
2022-10-05T22:51:11.592Z,75.22
2022-10-05T22:53:38.738Z,75.22
2022-10-05T22:56:12.011Z,75.21
2022-10-05T22:58:40.833Z,74.99
2022-10-05T23:01:11.438Z,74.75
2022-10-05T23:03:39.017Z,75.06
2022-10-05T23:06:10.173Z,75.25
2022-10-05T23:08:39.121Z,75.28
2022-10-05T23:11:12.432Z,75.17
2022-10-05T23:13:40.423Z,75.58
2022-10-05T23:16:11.556Z,75.16
2022-10-05T23:18:39.307Z,75.61
2022-10-05T23:21:08.416Z,75.49
2022-10-05T23:23:41.419Z,75.01
2022-10-05T23:26:10.591Z,75.22
2022-10-05T23:28:46.928Z,74.98
2022-10-05T23:31:17.411Z,75.05
2022-10-05T23:33:45.049Z,74.91
2022-10-05T23:36:28.103Z,75.08
2022-10-05T23:38:55.046Z,75.37
2022-10-05T23:41:22.274Z,75.49
2022-10-05T23:43:49.267Z,75.54
2022-10-05T23:46:17.595Z,75.59
2022-10-05T23:48:44.651Z,75.46
2022-10-05T23:51:13.586Z,75.19
2022-10-05T23:53:40.575Z,75.34
2022-10-05T23:56:07.837Z,75.42
2022-10-05T23:58:34.771Z,75.36
